Time;durP1;ratioP1;P1;durP2;ratioP2;P2;SDS_P1;SDS_P2;PMS_P1;PMS_P2;Temp;Humidity;BMP_temperature;BMP_pressure;BME280_temperature;BME280_humidity;BME280_pressure;Samples;Min_cycle;Max_cycle;Signal;HPM_P1;HPM_P2
2021/11/24 00:00:37;;;;;;;14.02;10.05;;;1.80;99.90;;;;;;5054133;28;20243;-69
2021/11/24 00:03:04;;;;;;;15.90;12.18;;;1.90;99.90;;;;;;5054088;28;20303;-70
2021/11/24 00:05:31;;;;;;;16.65;13.82;;;1.90;99.90;;;;;;5053899;28;20748;-71
2021/11/24 00:08:00;;;;;;;21.65;14.80;;;1.90;99.90;;;;;;5053877;28;20235;-70
2021/11/24 00:10:29;;;;;;;18.35;15.40;;;1.90;99.90;;;;;;5054230;28;20228;-69
2021/11/24 00:12:56;;;;;;;21.65;15.98;;;1.90;99.90;;;;;;5054194;28;20207;-70
2021/11/24 00:15:23;;;;;;;21.10;16.23;;;1.80;99.90;;;;;;5053314;28;20311;-69
2021/11/24 00:17:50;;;;;;;21.30;16.25;;;1.80;99.90;;;;;;5054116;28;20297;-69
2021/11/24 00:20:17;;;;;;;20.65;16.38;;;1.90;99.90;;;;;;5053844;28;20226;-69
2021/11/24 00:22:45;;;;;;;21.63;17.05;;;1.80;99.90;;;;;;5054126;28;20230;-69
2021/11/24 00:25:14;;;;;;;23.73;15.80;;;1.80;99.90;;;;;;5053369;28;20294;-69
2021/11/24 00:27:41;;;;;;;19.27;15.13;;;1.80;99.90;;;;;;5053671;28;20295;-71
2021/11/24 00:30:09;;;;;;;21.98;16.10;;;1.70;99.90;;;;;;5053183;28;20319;-70
2021/11/24 00:32:36;;;;;;;17.35;14.73;;;1.80;99.90;;;;;;5053525;28;20239;-71
2021/11/24 00:35:05;;;;;;;18.15;14.57;;;1.80;99.90;;;;;;5053132;28;20286;-71
2021/11/24 00:37:32;;;;;;;18.23;14.05;;;1.80;99.90;;;;;;5053693;28;20299;-71
2021/11/24 00:39:59;;;;;;;16.15;11.70;;;1.80;99.90;;;;;;5052747;28;20310;-69
2021/11/24 00:42:28;;;;;;;16.85;11.95;;;1.80;99.90;;;;;;5052984;28;20298;-69
2021/11/24 00:44:54;;;;;;;16.35;11.80;;;1.80;99.90;;;;;;5053018;28;20303;-69
2021/11/24 00:47:21;;;;;;;14.18;10.43;;;1.80;99.90;;;;;;5053470;28;20719;-69
2021/11/24 00:49:48;;;;;;;14.68;10.02;;;1.80;99.90;;;;;;5053061;28;20321;-71
2021/11/24 00:52:15;;;;;;;13.05;9.90;;;1.80;99.90;;;;;;5052967;28;20299;-70
2021/11/24 00:54:42;;;;;;;10.70;9.02;;;1.60;99.90;;;;;;5052916;28;20234;-68
2021/11/24 00:57:09;;;;;;;11.23;9.07;;;1.50;99.90;;;;;;5053841;28;20602;-69
2021/11/24 00:59:37;;;;;;;12.85;9.07;;;1.40;99.90;;;;;;5053334;28;20315;-69
2021/11/24 01:02:04;;;;;;;13.73;9.00;;;1.50;99.90;;;;;;5053481;28;20294;-69
2021/11/24 01:04:31;;;;;;;14.27;10.13;;;1.50;99.90;;;;;;5053348;28;20294;-70
2021/11/24 01:06:59;;;;;;;12.98;9.82;;;1.50;99.90;;;;;;5054301;28;20231;-70
2021/11/24 01:09:26;;;;;;;14.40;10.40;;;1.60;99.90;;;;;;5053873;28;20277;-69
2021/11/24 01:11:53;;;;;;;15.18;10.75;;;1.60;99.90;;;;;;5053810;28;20290;-68
2021/11/24 01:14:20;;;;;;;14.40;11.10;;;1.60;99.90;;;;;;5054215;28;20210;-67
2021/11/24 01:16:49;;;;;;;13.35;9.68;;;1.60;99.90;;;;;;5053480;28;20693;-70
2021/11/24 01:19:17;;;;;;;13.27;9.55;;;1.60;99.90;;;;;;5053905;28;20281;-70
2021/11/24 01:21:44;;;;;;;13.98;9.57;;;1.60;99.90;;;;;;5053640;28;20211;-71
2021/11/24 01:24:11;;;;;;;13.52;9.30;;;1.60;99.90;;;;;;5054242;28;20572;-71
2021/11/24 01:26:38;;;;;;;13.73;9.68;;;1.50;99.90;;;;;;5053788;28;20203;-71
2021/11/24 01:29:05;;;;;;;12.13;9.75;;;1.50;99.90;;;;;;5054300;28;20227;-70
2021/11/24 01:31:32;;;;;;;13.63;9.40;;;1.40;99.90;;;;;;5053298;28;20219;-69
2021/11/24 01:34:02;;;;;;;15.20;10.32;;;1.30;99.90;;;;;;5053631;28;20203;-70
2021/11/24 01:36:29;;;;;;;13.88;10.40;;;1.30;99.90;;;;;;5053396;28;20203;-70
2021/11/24 01:38:56;;;;;;;16.80;10.60;;;1.20;99.90;;;;;;5053439;28;20227;-69
2021/11/24 01:41:23;;;;;;;13.43;10.35;;;1.20;99.90;;;;;;5053346;28;20257;-70
2021/11/24 01:43:50;;;;;;;14.00;10.50;;;1.20;99.90;;;;;;5052858;28;20199;-68
2021/11/24 01:46:17;;;;;;;14.32;10.15;;;1.20;99.90;;;;;;5052287;28;20253;-69
2021/11/24 01:48:44;;;;;;;17.15;10.05;;;1.20;99.90;;;;;;5052774;28;20223;-69
2021/11/24 01:51:12;;;;;;;12.40;10.43;;;1.10;99.90;;;;;;5052014;28;20216;-69
2021/11/24 01:53:39;;;;;;;14.43;10.48;;;1.10;99.90;;;;;;5052422;28;20208;-69
2021/11/24 01:56:06;;;;;;;13.32;9.80;;;1.10;99.90;;;;;;5052363;28;20385;-69
2021/11/24 01:58:36;;;;;;;12.77;9.57;;;1.10;99.90;;;;;;5052350;28;20234;-68
2021/11/24 02:01:03;;;;;;;14.60;10.57;;;1.00;99.90;;;;;;5053183;28;20764;-70
2021/11/24 02:03:30;;;;;;;12.80;9.60;;;1.00;99.90;;;;;;5053595;28;20564;-69
2021/11/24 02:05:58;;;;;;;14.10;9.88;;;1.00;99.90;;;;;;5053065;28;20199;-69
2021/11/24 02:08:27;;;;;;;14.25;10.48;;;1.10;99.90;;;;;;5053282;28;20211;-69
2021/11/24 02:10:54;;;;;;;16.90;11.15;;;1.10;99.90;;;;;;5053402;28;20223;-70
2021/11/24 02:13:21;;;;;;;15.32;11.25;;;1.10;99.90;;;;;;5053677;28;20199;-69
2021/11/24 02:15:48;;;;;;;13.00;10.00;;;1.10;99.90;;;;;;5052355;28;20673;-71
2021/11/24 02:18:15;;;;;;;15.35;10.23;;;1.10;99.90;;;;;;5051659;28;20802;-69
2021/11/24 02:20:45;;;;;;;13.10;9.63;;;1.00;99.90;;;;;;5052736;28;20203;-70
2021/11/24 02:23:14;;;;;;;12.30;10.25;;;0.90;99.90;;;;;;5052265;28;20261;-70
2021/11/24 02:25:43;;;;;;;16.13;10.25;;;0.90;99.90;;;;;;5052304;28;20257;-69
2021/11/24 02:28:10;;;;;;;17.92;10.18;;;1.00;99.90;;;;;;5093438;28;20297;-70
2021/11/24 02:30:37;;;;;;;13.38;10.82;;;1.00;99.90;;;;;;5093563;28;20779;-69
2021/11/24 02:33:04;;;;;;;15.02;9.85;;;1.00;99.90;;;;;;5093950;28;20714;-70
2021/11/24 02:35:31;;;;;;;15.68;11.15;;;1.10;99.90;;;;;;5094044;28;20270;-69
2021/11/24 02:38:02;;;;;;;12.02;10.15;;;1.10;99.90;;;;;;5094238;28;20244;-69
2021/11/24 02:40:30;;;;;;;14.80;10.07;;;1.10;99.90;;;;;;5093779;28;20305;-69
2021/11/24 02:42:57;;;;;;;16.20;11.25;;;1.10;99.90;;;;;;5093780;28;20632;-69
2021/11/24 02:45:24;;;;;;;14.75;11.25;;;1.00;99.90;;;;;;5093449;28;20284;-69
2021/11/24 02:47:51;;;;;;;15.25;11.80;;;0.90;99.90;;;;;;5094485;28;20293;-69
2021/11/24 02:50:18;;;;;;;18.40;12.23;;;0.90;99.90;;;;;;5094524;28;20317;-69
2021/11/24 02:52:44;;;;;;;18.10;11.80;;;1.00;99.90;;;;;;5094577;28;20289;-69
2021/11/24 02:55:15;;;;;;;17.52;11.40;;;1.10;99.90;;;;;;5094133;28;20229;-69
2021/11/24 02:57:44;;;;;;;17.50;11.52;;;1.10;99.90;;;;;;5094296;28;20202;-69
2021/11/24 03:00:15;;;;;;;17.98;12.50;;;1.10;99.90;;;;;;5094100;28;20218;-69
2021/11/24 03:02:42;;;;;;;15.52;11.75;;;1.10;99.90;;;;;;5096397;28;20202;-69
2021/11/24 03:05:10;;;;;;;16.60;11.68;;;1.10;99.90;;;;;;5097862;28;20288;-70
2021/11/24 03:07:37;;;;;;;17.88;11.52;;;1.20;99.90;;;;;;5097953;28;20205;-69
2021/11/24 03:10:05;;;;;;;18.92;11.90;;;1.20;99.90;;;;;;5096908;28;20312;-69
2021/11/24 03:12:34;;;;;;;15.45;11.80;;;1.20;99.90;;;;;;5097227;28;20306;-69
2021/11/24 03:15:01;;;;;;;16.60;10.68;;;1.20;99.90;;;;;;5096442;28;20292;-69
2021/11/24 03:17:28;;;;;;;16.08;10.70;;;1.20;99.90;;;;;;5096953;28;20238;-69
2021/11/24 03:19:57;;;;;;;14.05;10.75;;;1.20;99.90;;;;;;5097196;28;20269;-69
2021/11/24 03:22:24;;;;;;;16.15;10.75;;;1.30;99.90;;;;;;5096872;28;20201;-69
2021/11/24 03:24:55;;;;;;;14.77;10.57;;;1.30;99.90;;;;;;5096755;28;20300;-69
2021/11/24 03:27:24;;;;;;;15.30;11.25;;;1.30;99.90;;;;;;5097436;28;20580;-69
2021/11/24 03:29:52;;;;;;;15.27;10.93;;;1.40;99.90;;;;;;5097961;28;20316;-69
2021/11/24 03:32:20;;;;;;;15.40;10.27;;;1.40;99.90;;;;;;5096827;28;20317;-69
2021/11/24 03:34:47;;;;;;;19.83;12.23;;;1.40;99.90;;;;;;5096741;28;20728;-69
2021/11/24 03:37:14;;;;;;;15.85;11.73;;;1.20;99.90;;;;;;5097162;28;20288;-69
2021/11/24 03:39:41;;;;;;;15.90;10.93;;;1.20;99.90;;;;;;5096804;28;20312;-69
2021/11/24 03:42:08;;;;;;;13.07;10.20;;;1.10;99.90;;;;;;5096913;28;20229;-69
2021/11/24 03:44:34;;;;;;;14.50;10.95;;;1.10;99.90;;;;;;5097159;28;20265;-70
2021/11/24 03:47:04;;;;;;;16.95;11.68;;;1.20;99.90;;;;;;5096650;28;20237;-69
2021/11/24 03:49:31;;;;;;;13.88;11.75;;;1.20;99.90;;;;;;5096407;28;20260;-69
2021/11/24 03:51:58;;;;;;;16.65;12.90;;;1.20;99.90;;;;;;5096456;28;20310;-69
2021/11/24 03:54:25;;;;;;;17.58;12.88;;;1.20;99.90;;;;;;5096136;28;20607;-70
2021/11/24 03:56:52;;;;;;;16.73;12.52;;;1.00;99.90;;;;;;5095923;28;20680;-69
2021/11/24 03:59:19;;;;;;;20.05;13.60;;;0.80;99.90;;;;;;5096243;28;20253;-69
2021/11/24 04:01:45;;;;;;;19.20;14.98;;;0.50;99.90;;;;;;5095973;28;20257;-69
2021/11/24 04:04:14;;;;;;;21.13;15.18;;;0.50;99.90;;;;;;5096053;28;20245;-69
2021/11/24 04:06:41;;;;;;;20.95;15.27;;;0.40;99.90;;;;;;5095919;28;20244;-69
2021/11/24 04:09:08;;;;;;;22.58;14.73;;;0.30;99.90;;;;;;5095898;28;20259;-69
2021/11/24 04:11:35;;;;;;;18.35;14.68;;;0.30;99.90;;;;;;5095820;28;20730;-69
2021/11/24 04:14:01;;;;;;;22.60;15.10;;;0.40;99.90;;;;;;5094875;28;20290;-69
2021/11/24 04:16:29;;;;;;;19.60;15.35;;;0.50;99.90;;;;;;5095481;28;20277;-69
2021/11/24 04:18:55;;;;;;;21.10;14.75;;;0.60;99.90;;;;;;5095741;28;20317;-69
2021/11/24 04:21:24;;;;;;;17.23;13.77;;;0.70;99.90;;;;;;5095834;28;20233;-69
2021/11/24 04:23:51;;;;;;;18.35;13.30;;;0.80;99.90;;;;;;5096008;28;20244;-69
2021/11/24 04:26:18;;;;;;;18.77;13.85;;;0.80;99.90;;;;;;5095581;28;20237;-69
2021/11/24 04:28:45;;;;;;;21.35;14.32;;;0.90;99.90;;;;;;5095870;28;20750;-69
2021/11/24 04:31:12;;;;;;;20.08;13.45;;;0.90;99.90;;;;;;5095179;28;20260;-69
2021/11/24 04:33:39;;;;;;;19.88;13.77;;;1.00;99.90;;;;;;5095433;28;20275;-70
2021/11/24 04:36:08;;;;;;;18.45;13.50;;;1.00;99.90;;;;;;5094815;28;20293;-69
2021/11/24 04:38:36;;;;;;;15.57;13.20;;;1.00;99.90;;;;;;5095385;28;20230;-69
2021/11/24 04:41:03;;;;;;;19.08;15.00;;;0.90;99.90;;;;;;5095407;28;20221;-69
2021/11/24 04:43:32;;;;;;;18.45;13.15;;;0.90;99.90;;;;;;5095027;28;20244;-69
2021/11/24 04:46:00;;;;;;;19.25;13.80;;;0.90;99.90;;;;;;5094792;28;20564;-69
2021/11/24 04:48:27;;;;;;;19.02;14.60;;;0.80;99.90;;;;;;5095179;28;20206;-69
2021/11/24 04:50:54;;;;;;;17.73;12.65;;;0.80;99.90;;;;;;5095070;28;20229;-69
2021/11/24 04:53:21;;;;;;;18.10;14.70;;;0.80;99.90;;;;;;5095022;28;20250;-69
2021/11/24 04:55:51;;;;;;;20.27;14.25;;;0.70;99.90;;;;;;5094835;28;20234;-71
2021/11/24 04:58:18;;;;;;;17.35;12.45;;;0.60;99.90;;;;;;5094642;28;20610;-69
2021/11/24 05:00:45;;;;;;;21.65;13.52;;;0.60;99.90;;;;;;5094794;28;20202;-70
2021/11/24 05:03:12;;;;;;;20.40;13.88;;;0.50;99.90;;;;;;5094720;28;20204;-69
2021/11/24 05:05:39;;;;;;;18.98;13.27;;;0.60;99.90;;;;;;5094272;28;20292;-69
2021/11/24 05:08:06;;;;;;;20.48;13.50;;;0.70;99.90;;;;;;5094975;28;20358;-69
2021/11/24 05:10:34;;;;;;;21.10;13.52;;;0.70;99.90;;;;;;5094985;28;20222;-69
2021/11/24 05:13:02;;;;;;;17.35;13.27;;;0.80;99.90;;;;;;5094364;28;20317;-69
2021/11/24 05:15:31;;;;;;;21.63;13.82;;;0.80;99.90;;;;;;5094179;28;20298;-69
2021/11/24 05:18:01;;;;;;;16.35;13.30;;;0.80;99.90;;;;;;5094541;28;20224;-69
2021/11/24 05:20:30;;;;;;;18.67;12.50;;;0.80;99.90;;;;;;5094432;28;20226;-69
2021/11/24 05:22:59;;;;;;;18.00;13.35;;;0.80;99.90;;;;;;5094647;28;20212;-69
2021/11/24 05:25:26;;;;;;;17.83;13.75;;;0.60;99.90;;;;;;5094039;28;20296;-69
2021/11/24 05:27:53;;;;;;;19.33;13.40;;;0.30;99.90;;;;;;5094580;28;20293;-69
2021/11/24 05:30:22;;;;;;;19.90;14.20;;;0.20;99.90;;;;;;5094463;28;20250;-69
2021/11/24 05:32:49;;;;;;;19.33;13.70;;;0.10;99.90;;;;;;5094484;28;20264;-69
2021/11/24 05:35:20;;;;;;;18.50;12.90;;;0.30;99.90;;;;;;5094134;28;20202;-70
2021/11/24 05:37:47;;;;;;;19.00;13.43;;;0.40;99.90;;;;;;5094533;28;20206;-69
2021/11/24 05:40:15;;;;;;;20.48;14.00;;;0.40;99.90;;;;;;5094116;28;20253;-70
2021/11/24 05:42:46;;;;;;;22.77;14.38;;;0.40;99.90;;;;;;5094383;28;20234;-69
2021/11/24 05:45:15;;;;;;;22.15;13.95;;;0.50;99.90;;;;;;5094139;28;20255;-69
2021/11/24 05:47:57;;;;;;;21.85;14.13;;;0.60;99.90;;;;;;5094296;28;20198;-69
2021/11/24 05:50:26;;;;;;;18.00;13.10;;;0.60;99.90;;;;;;5094561;28;20221;-69
2021/11/24 05:52:53;;;;;;;18.67;13.20;;;0.70;99.90;;;;;;5094197;28;20253;-70
2021/11/24 05:55:20;;;;;;;18.48;13.90;;;0.60;99.90;;;;;;5093793;28;20695;-69
2021/11/24 05:57:47;;;;;;;19.65;14.30;;;0.60;99.90;;;;;;5094247;28;20242;-69
2021/11/24 06:00:16;;;;;;;20.88;14.25;;;0.50;99.90;;;;;;5094412;28;20253;-69
2021/11/24 06:02:45;;;;;;;18.60;13.93;;;0.40;99.90;;;;;;5094416;28;20234;-69
2021/11/24 06:05:12;;;;;;;20.30;12.35;;;0.50;99.90;;;;;;5093817;28;20293;-69
2021/11/24 06:07:40;;;;;;;18.58;13.65;;;0.60;99.90;;;;;;5093751;28;20301;-70
2021/11/24 06:10:09;;;;;;;18.60;12.90;;;0.60;99.90;;;;;;5094136;28;20317;-69
2021/11/24 06:12:36;;;;;;;20.73;13.38;;;0.70;99.90;;;;;;5093960;28;20762;-69
2021/11/24 06:15:03;;;;;;;19.65;13.40;;;0.70;99.90;;;;;;5093656;28;20233;-69
2021/11/24 06:17:30;;;;;;;18.52;13.68;;;0.70;99.90;;;;;;5093830;28;20297;-69
2021/11/24 06:19:59;;;;;;;18.75;13.43;;;0.70;99.90;;;;;;5093757;28;20317;-69
2021/11/24 06:22:26;;;;;;;17.63;12.70;;;0.70;99.90;;;;;;5094030;28;20252;-69
2021/11/24 06:24:52;;;;;;;17.30;12.55;;;0.70;99.90;;;;;;5093492;28;20237;-70
2021/11/24 06:27:19;;;;;;;19.38;13.07;;;0.70;99.90;;;;;;5093739;28;20238;-69
2021/11/24 06:29:46;;;;;;;21.95;13.95;;;0.70;99.90;;;;;;5093640;28;20253;-69
2021/11/24 06:32:13;;;;;;;19.27;13.52;;;0.70;99.90;;;;;;5093649;28;20739;-69
2021/11/24 06:34:40;;;;;;;20.58;14.38;;;0.70;99.90;;;;;;5093571;28;20229;-69
2021/11/24 06:37:08;;;;;;;17.55;13.02;;;0.70;99.90;;;;;;5095544;28;20233;-69
2021/11/24 06:39:35;;;;;;;19.75;13.98;;;0.70;99.90;;;;;;5097631;28;20309;-69
2021/11/24 06:42:02;;;;;;;20.98;14.70;;;0.70;99.90;;;;;;5097698;28;20229;-69
2021/11/24 06:44:29;;;;;;;21.75;13.73;;;0.70;99.90;;;;;;5097324;28;20608;-69
2021/11/24 06:46:56;;;;;;;19.85;14.75;;;0.60;99.90;;;;;;5097531;28;20711;-70
2021/11/24 06:49:23;;;;;;;22.02;14.43;;;0.70;99.90;;;;;;5097769;28;20254;-69
2021/11/24 06:51:50;;;;;;;17.83;13.68;;;0.70;99.90;;;;;;5097144;28;20222;-69
2021/11/24 06:54:18;;;;;;;18.65;13.80;;;0.70;99.90;;;;;;5097245;28;20244;-69
2021/11/24 06:56:46;;;;;;;21.83;13.80;;;0.60;99.90;;;;;;5096946;28;20203;-69
2021/11/24 06:59:13;;;;;;;18.65;12.70;;;0.60;99.90;;;;;;5097237;28;20249;-69
2021/11/24 07:01:40;;;;;;;18.85;12.98;;;0.60;99.90;;;;;;5097300;28;20234;-69
2021/11/24 07:04:07;;;;;;;19.38;12.98;;;0.60;99.90;;;;;;5097142;28;20198;-69
2021/11/24 07:06:34;;;;;;;17.83;13.50;;;0.60;99.90;;;;;;5096670;28;20245;-69
2021/11/24 07:09:03;;;;;;;19.80;15.05;;;0.50;99.90;;;;;;5096831;28;20297;-69
2021/11/24 07:11:32;;;;;;;19.17;13.38;;;0.50;99.90;;;;;;5096931;28;20205;-69
2021/11/24 07:13:59;;;;;;;18.60;13.18;;;0.50;99.90;;;;;;5096836;28;20198;-69
2021/11/24 07:16:26;;;;;;;19.35;13.73;;;0.40;99.90;;;;;;5096337;28;20638;-69
2021/11/24 07:18:53;;;;;;;18.65;13.77;;;0.40;99.90;;;;;;5096618;28;20253;-69
2021/11/24 07:21:20;;;;;;;20.02;14.35;;;0.50;99.90;;;;;;5097933;28;20241;-69
2021/11/24 07:23:47;;;;;;;18.83;13.45;;;0.50;99.90;;;;;;5097711;28;20226;-69
2021/11/24 07:26:14;;;;;;;20.13;14.25;;;0.60;99.90;;;;;;5097914;28;20202;-69
2021/11/24 07:28:42;;;;;;;18.35;14.45;;;0.60;99.90;;;;;;5098201;28;20309;-69
2021/11/24 07:31:09;;;;;;;18.55;14.25;;;0.70;99.90;;;;;;5098039;28;20734;-69
2021/11/24 07:33:36;;;;;;;19.42;13.68;;;0.80;99.90;;;;;;5098003;28;20218;-69
2021/11/24 07:36:04;;;;;;;17.75;13.25;;;0.90;99.90;;;;;;5097288;28;20301;-69
2021/11/24 07:38:31;;;;;;;18.67;13.63;;;1.00;99.90;;;;;;5097642;28;20257;-70
2021/11/24 07:40:58;;;;;;;18.40;14.60;;;1.20;99.90;;;;;;5098477;28;20536;-69
2021/11/24 07:43:25;;;;;;;20.55;14.60;;;1.30;99.90;;;;;;5097459;28;20240;-70
2021/11/24 07:45:53;;;;;;;22.52;13.55;;;1.40;99.90;;;;;;5096940;28;20290;-69
2021/11/24 07:48:22;;;;;;;20.08;14.98;;;1.60;99.90;;;;;;5097401;28;20233;-69
2021/11/24 07:50:49;;;;;;;27.80;19.92;;;1.60;99.90;;;;;;5096706;28;20206;-69
2021/11/24 07:53:16;;;;;;;23.63;16.88;;;1.70;99.90;;;;;;5095990;28;20222;-69
2021/11/24 07:55:43;;;;;;;20.52;14.95;;;1.80;99.90;;;;;;5096193;28;20244;-71
2021/11/24 07:58:12;;;;;;;20.70;15.88;;;1.70;99.90;;;;;;5096409;28;20234;-69
2021/11/24 08:00:39;;;;;;;19.50;14.73;;;1.90;99.90;;;;;;5096612;28;20209;-69
2021/11/24 08:03:07;;;;;;;20.98;14.63;;;1.90;99.90;;;;;;5096829;28;20237;-69
2021/11/24 08:05:34;;;;;;;22.42;15.35;;;2.00;99.90;;;;;;5096624;28;20285;-69
2021/11/24 08:08:00;;;;;;;20.25;14.68;;;2.10;99.90;;;;;;5096810;28;20285;-69
2021/11/24 08:10:28;;;;;;;21.65;15.00;;;2.20;99.90;;;;;;5096533;28;20256;-70
2021/11/24 08:12:55;;;;;;;21.73;17.10;;;2.20;99.90;;;;;;5096948;28;20312;-69
2021/11/24 08:15:22;;;;;;;23.48;15.48;;;2.30;99.90;;;;;;5095920;28;20234;-70
2021/11/24 08:17:49;;;;;;;28.40;17.38;;;2.30;99.90;;;;;;5095756;28;20242;-70
2021/11/24 08:20:17;;;;;;;28.90;16.90;;;2.30;99.90;;;;;;5095178;28;20309;-70
2021/11/24 08:22:44;;;;;;;30.40;20.23;;;2.40;99.90;;;;;;5068103;28;20276;-69
2021/11/24 08:25:11;;;;;;;24.13;16.70;;;2.40;99.90;;;;;;5053913;28;20247;-70
2021/11/24 08:27:38;;;;;;;22.15;15.70;;;2.50;99.90;;;;;;5053938;28;20257;-70
2021/11/24 08:30:07;;;;;;;26.50;17.25;;;2.60;99.90;;;;;;5054013;28;20310;-69
2021/11/24 08:32:34;;;;;;;24.83;16.33;;;2.70;99.90;;;;;;5053625;28;20781;-69
2021/11/24 08:35:01;;;;;;;24.98;15.60;;;2.80;99.90;;;;;;5053404;28;20673;-71
2021/11/24 08:37:31;;;;;;;22.95;15.82;;;2.90;99.90;;;;;;5053325;28;20587;-70
2021/11/24 08:39:58;;;;;;;24.05;16.00;;;3.00;99.90;;;;;;5053946;28;20641;-69
2021/11/24 08:42:26;;;;;;;24.90;16.52;;;3.10;99.90;;;;;;5053516;28;20235;-70
2021/11/24 08:44:53;;;;;;;24.80;17.17;;;3.20;99.90;;;;;;5053320;28;20601;-70
2021/11/24 08:47:20;;;;;;;25.90;17.20;;;3.20;99.90;;;;;;5053211;28;20239;-69
2021/11/24 08:49:47;;;;;;;24.05;17.25;;;3.20;99.90;;;;;;5053306;28;20752;-71
2021/11/24 08:52:14;;;;;;;24.73;16.35;;;3.10;99.90;;;;;;5053132;28;20258;-72
2021/11/24 08:54:42;;;;;;;24.58;16.67;;;3.00;99.90;;;;;;5052821;28;20237;-71
2021/11/24 08:57:09;;;;;;;22.90;16.55;;;3.00;99.90;;;;;;5052974;28;20290;-71
2021/11/24 08:59:36;;;;;;;25.38;16.60;;;3.10;99.90;;;;;;5052827;28;20318;-70
2021/11/24 09:02:04;;;;;;;22.60;15.57;;;3.40;99.90;;;;;;5053350;28;20241;-71
2021/11/24 09:04:30;;;;;;;25.13;16.73;;;3.50;99.90;;;;;;5052863;28;20622;-70
2021/11/24 09:06:58;;;;;;;24.75;16.67;;;3.60;99.90;;;;;;5052995;28;20242;-70
2021/11/24 09:09:25;;;;;;;26.42;17.15;;;3.70;99.90;;;;;;5053513;28;20755;-70
2021/11/24 09:11:53;;;;;;;29.50;17.77;;;3.70;99.90;;;;;;5053532;28;20605;-72
2021/11/24 09:14:20;;;;;;;27.88;17.67;;;3.90;99.90;;;;;;5053011;28;20228;-69
2021/11/24 09:16:47;;;;;;;25.00;16.98;;;4.00;99.90;;;;;;5052647;28;20247;-70
2021/11/24 09:19:14;;;;;;;25.42;16.30;;;4.20;99.90;;;;;;5053741;28;20259;-70
2021/11/24 09:21:41;;;;;;;25.85;17.60;;;4.30;99.90;;;;;;5054141;28;20307;-70
2021/11/24 09:24:13;;;;;;;25.42;17.20;;;4.40;99.90;;;;;;5054076;28;20621;-70
2021/11/24 09:26:42;;;;;;;23.23;15.13;;;4.40;99.90;;;;;;5053885;28;20286;-70
2021/11/24 09:29:12;;;;;;;26.02;16.77;;;4.50;99.90;;;;;;5053802;28;20227;-70
2021/11/24 09:31:40;;;;;;;22.52;15.75;;;4.50;99.90;;;;;;5053963;28;20207;-71
2021/11/24 09:34:07;;;;;;;24.70;16.27;;;4.50;99.90;;;;;;5053871;28;20581;-70
2021/11/24 09:36:34;;;;;;;23.58;16.50;;;4.60;99.90;;;;;;5053694;28;20231;-70
2021/11/24 09:39:02;;;;;;;27.42;17.40;;;4.60;99.90;;;;;;5053777;28;20579;-70
2021/11/24 09:41:32;;;;;;;25.08;16.70;;;4.40;99.90;;;;;;5053886;28;20290;-70
2021/11/24 09:44:03;;;;;;;26.48;17.05;;;4.40;99.90;;;;;;5053701;28;20294;-70
2021/11/24 09:46:31;;;;;;;23.65;15.90;;;4.50;99.90;;;;;;5053315;28;20209;-70
2021/11/24 09:48:59;;;;;;;27.27;17.67;;;4.40;99.90;;;;;;5053643;28;20318;-70
2021/11/24 09:51:27;;;;;;;25.58;16.20;;;4.40;99.90;;;;;;5053481;28;20203;-70
2021/11/24 09:53:54;;;;;;;22.70;15.75;;;4.40;99.90;;;;;;5053486;28;20776;-70
2021/11/24 09:56:21;;;;;;;23.23;15.45;;;4.30;99.90;;;;;;5053479;28;20241;-70
2021/11/24 09:58:48;;;;;;;22.55;14.77;;;4.40;99.90;;;;;;5053485;28;20768;-70
2021/11/24 10:01:15;;;;;;;22.25;15.10;;;4.30;99.90;;;;;;5053610;28;20290;-70
2021/11/24 10:03:43;;;;;;;22.98;15.18;;;4.40;99.90;;;;;;5053620;28;20238;-70
2021/11/24 10:06:10;;;;;;;24.35;15.68;;;4.40;99.90;;;;;;5053339;28;20207;-70
2021/11/24 10:08:37;;;;;;;23.05;14.43;;;4.50;99.90;;;;;;5053283;28;20258;-70
2021/11/24 10:11:04;;;;;;;20.92;15.00;;;4.50;99.90;;;;;;5053177;28;20239;-71
2021/11/24 10:13:31;;;;;;;23.73;14.93;;;4.60;99.90;;;;;;5057534;28;20649;-70
2021/11/24 10:15:59;;;;;;;22.45;14.75;;;4.70;99.90;;;;;;5057357;28;20254;-70
2021/11/24 10:18:28;;;;;;;19.73;14.27;;;4.80;99.90;;;;;;5057487;28;20239;-70
2021/11/24 10:21:02;;;;;;;24.02;15.23;;;4.80;99.90;;;;;;5057594;28;20621;-70
2021/11/24 10:23:32;;;;;;;21.70;14.98;;;4.80;99.90;;;;;;5057504;28;20301;-70
2021/11/24 10:26:21;;;;;;;23.85;16.10;;;4.90;99.90;;;;;;5057070;28;20617;-70
2021/11/24 10:28:54;;;;;;;23.88;15.98;;;5.00;99.90;;;;;;5057334;28;20227;-70
2021/11/24 10:31:39;;;;;;;21.40;15.02;;;5.10;99.90;;;;;;5057645;28;20200;-69
2021/11/24 10:34:16;;;;;;;22.42;15.93;;;5.20;99.90;;;;;;5057109;28;20315;-70
2021/11/24 10:37:00;;;;;;;22.20;14.88;;;5.20;99.90;;;;;;5056792;28;20294;-70
2021/11/24 10:39:30;;;;;;;21.30;13.65;;;5.30;99.90;;;;;;5056961;28;20231;-70
2021/11/24 10:42:11;;;;;;;23.30;15.30;;;5.40;99.90;;;;;;5057140;28;20294;-70
2021/11/24 10:44:39;;;;;;;19.73;14.27;;;5.40;99.90;;;;;;5056830;28;20290;-70
2021/11/24 10:47:08;;;;;;;20.58;13.70;;;5.30;99.90;;;;;;5056827;28;20235;-70
2021/11/24 10:49:43;;;;;;;19.20;13.52;;;5.30;99.90;;;;;;5056978;28;20310;-71
2021/11/24 10:52:21;;;;;;;20.98;14.25;;;5.50;99.90;;;;;;5056934;28;20210;-70
2021/11/24 10:55:13;;;;;;;20.13;14.27;;;5.50;99.90;;;;;;5056688;28;20277;-71
2021/11/24 10:57:42;;;;;;;20.95;13.57;;;5.40;99.90;;;;;;5042284;28;20299;-70
2021/11/24 11:00:13;;;;;;;18.23;13.00;;;5.30;99.90;;;;;;5056819;28;20227;-70
2021/11/24 11:02:41;;;;;;;18.20;12.95;;;5.50;99.90;;;;;;5056482;28;20241;-70
2021/11/24 11:05:17;;;;;;;21.63;13.75;;;5.50;99.90;;;;;;5056607;28;20246;-70
2021/11/24 11:08:01;;;;;;;20.52;13.95;;;5.60;99.90;;;;;;5056594;28;20199;-70
2021/11/24 11:10:30;;;;;;;22.42;14.95;;;5.90;99.90;;;;;;5056662;28;20285;-70
2021/11/24 11:13:00;;;;;;;23.48;16.25;;;6.20;99.90;;;;;;5056401;28;20319;-70
2021/11/24 11:15:31;;;;;;;25.95;17.08;;;6.30;99.90;;;;;;5056217;28;20238;-70
2021/11/24 11:18:08;;;;;;;23.52;16.05;;;6.30;99.90;;;;;;5056438;28;20248;-70
2021/11/24 11:20:37;;;;;;;22.27;14.98;;;6.30;99.90;;;;;;5056455;28;20241;-70
2021/11/24 11:23:12;;;;;;;19.42;13.50;;;6.30;99.90;;;;;;5056037;28;20611;-69
2021/11/24 11:25:41;;;;;;;20.05;12.93;;;6.20;99.90;;;;;;5056053;28;20203;-70
2021/11/24 11:28:08;;;;;;;23.92;14.90;;;6.20;99.90;;;;;;5056365;28;20231;-70
2021/11/24 11:30:37;;;;;;;21.23;13.48;;;6.10;99.90;;;;;;5056121;28;20314;-70
2021/11/24 11:33:05;;;;;;;19.58;13.23;;;5.90;99.90;;;;;;5055920;28;20310;-69
2021/11/24 11:35:32;;;;;;;18.25;13.30;;;5.70;99.90;;;;;;5055782;28;20665;-70
2021/11/24 11:38:00;;;;;;;20.60;13.65;;;5.70;99.90;;;;;;5056163;28;20627;-70
2021/11/24 11:40:29;;;;;;;18.80;12.57;;;5.70;99.90;;;;;;5056044;28;20310;-70
2021/11/24 11:42:59;;;;;;;16.70;12.90;;;5.70;99.90;;;;;;5055923;28;20234;-70
2021/11/24 11:45:30;;;;;;;19.15;13.45;;;5.60;99.90;;;;;;5055555;28;20685;-70
2021/11/24 11:47:59;;;;;;;15.70;11.90;;;5.50;99.90;;;;;;5055944;28;20573;-70
2021/11/24 11:50:54;;;;;;;19.58;12.60;;;5.40;99.90;;;;;;5055827;28;20219;-69
2021/11/24 11:53:23;;;;;;;20.98;12.65;;;5.40;99.90;;;;;;5053972;28;20265;-70
2021/11/24 11:56:23;;;;;;;16.60;10.55;;;5.50;99.90;;;;;;5055542;28;20235;-70
2021/11/24 11:58:59;;;;;;;19.95;12.10;;;5.40;99.90;;;;;;5055514;28;20310;-69
2021/11/24 12:01:29;;;;;;;17.02;11.82;;;5.40;99.90;;;;;;5055754;28;20574;-70
2021/11/24 12:04:11;;;;;;;18.83;12.48;;;5.40;99.90;;;;;;5055610;28;20625;-70
2021/11/24 12:06:41;;;;;;;21.27;12.52;;;5.40;99.90;;;;;;5055189;28;20203;-70
2021/11/24 12:09:10;;;;;;;16.08;11.20;;;5.50;99.90;;;;;;5055426;28;20227;-70
2021/11/24 12:12:20;;;;;;;17.25;12.00;;;5.70;99.90;;;;;;5055194;28;20290;-70
2021/11/24 12:15:10;;;;;;;18.95;11.60;;;5.90;99.90;;;;;;5055165;28;20259;-70
2021/11/24 12:17:55;;;;;;;17.52;10.95;;;6.00;99.90;;;;;;5055248;28;20200;-70
2021/11/24 12:20:46;;;;;;;18.00;11.68;;;5.80;99.90;;;;;;5055154;28;20263;-70
2021/11/24 12:23:32;;;;;;;18.10;11.93;;;5.80;99.90;;;;;;5055404;28;20213;-70
2021/11/24 12:26:02;;;;;;;17.73;12.02;;;5.80;99.90;;;;;;5054951;28;20293;-70
2021/11/24 12:28:37;;;;;;;15.25;11.20;;;6.40;99.90;;;;;;5055296;28;20226;-70
2021/11/24 12:31:12;;;;;;;18.80;12.50;;;6.50;99.90;;;;;;5055072;28;20249;-69
2021/11/24 12:33:54;;;;;;;18.98;11.50;;;6.70;99.90;;;;;;5054451;28;20273;-70
2021/11/24 12:36:29;;;;;;;17.95;11.90;;;6.80;99.90;;;;;;5054700;28;20207;-70
2021/11/24 12:39:01;;;;;;;16.40;10.82;;;6.70;99.90;;;;;;5054846;28;20594;-70
2021/11/24 12:41:30;;;;;;;16.55;11.82;;;6.70;99.90;;;;;;5054710;28;20210;-70
2021/11/24 12:44:00;;;;;;;16.83;11.75;;;6.50;99.90;;;;;;5054590;28;20235;-70
2021/11/24 12:46:30;;;;;;;16.33;12.13;;;6.60;99.90;;;;;;5054626;28;20290;-71